sensor_id;sensor_type;location;lat;lon;timestamp;temperature;humidity
16491;DHT22;8356;51.214;3.270;2023-02-13T00:00:32;281.80;2278.40
16491;DHT22;8356;51.214;3.270;2023-02-13T00:02:58;281.60;2278.40
16491;DHT22;8356;51.214;3.270;2023-02-13T00:05:23;281.80;2278.40
16491;DHT22;8356;51.214;3.270;2023-02-13T00:07:49;282.00;2278.40
16491;DHT22;8356;51.214;3.270;2023-02-13T00:10:15;282.00;2278.40
16491;DHT22;8356;51.214;3.270;2023-02-13T00:12:40;281.80;2278.40
16491;DHT22;8356;51.214;3.270;2023-02-13T00:15:06;281.90;2278.40
16491;DHT22;8356;51.214;3.270;2023-02-13T00:17:32;282.00;2278.40
16491;DHT22;8356;51.214;3.270;2023-02-13T00:19:58;282.20;2278.40
16491;DHT22;8356;51.214;3.270;2023-02-13T00:22:24;282.20;2278.40
16491;DHT22;8356;51.214;3.270;2023-02-13T00:24:50;282.30;2278.40
16491;DHT22;8356;51.214;3.270;2023-02-13T00:27:15;282.20;2278.40
16491;DHT22;8356;51.214;3.270;2023-02-13T00:29:41;282.00;2278.40
16491;DHT22;8356;51.214;3.270;2023-02-13T00:32:07;282.00;2278.40
16491;DHT22;8356;51.214;3.270;2023-02-13T00:34:33;282.10;2278.40
16491;DHT22;8356;51.214;3.270;2023-02-13T00:36:58;282.20;2278.40
16491;DHT22;8356;51.214;3.270;2023-02-13T00:39:24;282.20;2278.40
16491;DHT22;8356;51.214;3.270;2023-02-13T00:41:50;281.80;2278.40
16491;DHT22;8356;51.214;3.270;2023-02-13T00:44:15;281.90;2278.40
16491;DHT22;8356;51.214;3.270;2023-02-13T00:46:41;281.90;2278.40
16491;DHT22;8356;51.214;3.270;2023-02-13T00:49:07;282.00;2278.40
16491;DHT22;8356;51.214;3.270;2023-02-13T00:51:32;282.10;2278.40
16491;DHT22;8356;51.214;3.270;2023-02-13T00:53:58;282.30;2278.40
16491;DHT22;8356;51.214;3.270;2023-02-13T00:56:23;282.30;2278.40
16491;DHT22;8356;51.214;3.270;2023-02-13T00:58:49;282.10;2278.40
16491;DHT22;8356;51.214;3.270;2023-02-13T01:01:15;282.20;2278.40
16491;DHT22;8356;51.214;3.270;2023-02-13T01:03:40;282.00;2278.40
16491;DHT22;8356;51.214;3.270;2023-02-13T01:06:06;281.80;2278.40
16491;DHT22;8356;51.214;3.270;2023-02-13T01:08:32;281.90;2278.40
16491;DHT22;8356;51.214;3.270;2023-02-13T01:10:58;307.50;2304.00
16491;DHT22;8356;51.214;3.270;2023-02-13T01:13:25;282.20;2278.40
16491;DHT22;8356;51.214;3.270;2023-02-13T01:15:50;282.30;2278.40
16491;DHT22;8356;51.214;3.270;2023-02-13T01:18:18;282.30;2278.40
16491;DHT22;8356;51.214;3.270;2023-02-13T01:20:44;282.20;2278.40
16491;DHT22;8356;51.214;3.270;2023-02-13T01:23:11;307.30;2304.00
16491;DHT22;8356;51.214;3.270;2023-02-13T01:25:43;282.20;2278.40
16491;DHT22;8356;51.214;3.270;2023-02-13T01:28:09;281.80;2278.40
16491;DHT22;8356;51.214;3.270;2023-02-13T01:30:34;282.00;2278.40
16491;DHT22;8356;51.214;3.270;2023-02-13T01:33:00;282.00;2278.40
16491;DHT22;8356;51.214;3.270;2023-02-13T01:35:26;281.90;2278.40
16491;DHT22;8356;51.214;3.270;2023-02-13T01:37:51;281.90;2278.40
16491;DHT22;8356;51.214;3.270;2023-02-13T01:40:17;281.60;2278.40
16491;DHT22;8356;51.214;3.270;2023-02-13T01:42:43;281.80;2278.40
16491;DHT22;8356;51.214;3.270;2023-02-13T01:45:32;281.80;2278.40
16491;DHT22;8356;51.214;3.270;2023-02-13T01:48:22;282.00;2278.40
16491;DHT22;8356;51.214;3.270;2023-02-13T01:51:00;282.20;2278.40
16491;DHT22;8356;51.214;3.270;2023-02-13T01:53:41;281.90;2278.40
16491;DHT22;8356;51.214;3.270;2023-02-13T01:58:56;282.10;2278.40
16491;DHT22;8356;51.214;3.270;2023-02-13T02:01:23;281.90;2278.40
16491;DHT22;8356;51.214;3.270;2023-02-13T02:04:20;281.90;2278.40
16491;DHT22;8356;51.214;3.270;2023-02-13T02:06:53;282.00;2278.40
16491;DHT22;8356;51.214;3.270;2023-02-13T02:09:22;281.80;2278.40
16491;DHT22;8356;51.214;3.270;2023-02-13T02:12:00;281.80;2278.40
16491;DHT22;8356;51.214;3.270;2023-02-13T02:14:27;281.80;2278.40
16491;DHT22;8356;51.214;3.270;2023-02-13T02:16:53;281.60;2278.40
16491;DHT22;8356;51.214;3.270;2023-02-13T02:28:03;281.80;2278.40
16491;DHT22;8356;51.214;3.270;2023-02-13T02:31:11;281.80;2278.40
16491;DHT22;8356;51.214;3.270;2023-02-13T02:37:10;256.90;2252.80
16491;DHT22;8356;51.214;3.270;2023-02-13T02:45:46;256.90;2252.80
16491;DHT22;8356;51.214;3.270;2023-02-13T02:51:07;256.80;2252.80
16491;DHT22;8356;51.214;3.270;2023-02-13T02:53:42;256.90;2252.80
16491;DHT22;8356;51.214;3.270;2023-02-13T02:56:19;256.90;2252.80
16491;DHT22;8356;51.214;3.270;2023-02-13T02:59:01;256.90;2252.80
16491;DHT22;8356;51.214;3.270;2023-02-13T03:01:47;256.70;2252.80
16491;DHT22;8356;51.214;3.270;2023-02-13T03:04:47;256.80;2252.80
16491;DHT22;8356;51.214;3.270;2023-02-13T03:07:34;281.60;2278.40
16491;DHT22;8356;51.214;3.270;2023-02-13T03:10:04;256.90;2252.80
16491;DHT22;8356;51.214;3.270;2023-02-13T03:15:38;281.80;2278.40
16491;DHT22;8356;51.214;3.270;2023-02-13T03:18:24;281.90;2278.40
16491;DHT22;8356;51.214;3.270;2023-02-13T03:21:16;281.90;2278.40
16491;DHT22;8356;51.214;3.270;2023-02-13T03:24:12;281.70;2278.40
16491;DHT22;8356;51.214;3.270;2023-02-13T03:26:46;281.80;2278.40
16491;DHT22;8356;51.214;3.270;2023-02-13T03:38:02;256.80;2252.80
16491;DHT22;8356;51.214;3.270;2023-02-13T03:40:37;256.80;2252.80
16491;DHT22;8356;51.214;3.270;2023-02-13T03:43:25;281.60;2278.40
16491;DHT22;8356;51.214;3.270;2023-02-13T03:45:51;256.90;2252.80
16491;DHT22;8356;51.214;3.270;2023-02-13T03:48:28;256.80;2252.80
16491;DHT22;8356;51.214;3.270;2023-02-13T03:51:32;281.60;2278.40
16491;DHT22;8356;51.214;3.270;2023-02-13T03:54:02;281.60;2278.40
16491;DHT22;8356;51.214;3.270;2023-02-13T03:56:31;256.70;2252.80
16491;DHT22;8356;51.214;3.270;2023-02-13T03:59:27;256.60;2252.80
16491;DHT22;8356;51.214;3.270;2023-02-13T04:02:10;256.90;2252.80
16491;DHT22;8356;51.214;3.270;2023-02-13T04:04:49;256.80;2252.80
16491;DHT22;8356;51.214;3.270;2023-02-13T04:07:18;256.80;2252.80
16491;DHT22;8356;51.214;3.270;2023-02-13T04:09:59;256.70;2252.80
16491;DHT22;8356;51.214;3.270;2023-02-13T04:13:00;256.60;2252.80
16491;DHT22;8356;51.214;3.270;2023-02-13T04:18:14;256.40;2252.80
16491;DHT22;8356;51.214;3.270;2023-02-13T04:20:41;256.40;2252.80
16491;DHT22;8356;51.214;3.270;2023-02-13T04:23:08;256.60;2252.80
16491;DHT22;8356;51.214;3.270;2023-02-13T04:25:37;256.60;2252.80
16491;DHT22;8356;51.214;3.270;2023-02-13T04:28:03;256.80;2252.80
16491;DHT22;8356;51.214;3.270;2023-02-13T04:30:29;256.80;2252.80
16491;DHT22;8356;51.214;3.270;2023-02-13T04:32:55;256.80;2252.80
16491;DHT22;8356;51.214;3.270;2023-02-13T04:35:20;281.70;2278.40
16491;DHT22;8356;51.214;3.270;2023-02-13T04:37:46;281.80;2278.40
16491;DHT22;8356;51.214;3.270;2023-02-13T04:40:12;281.90;2278.40
16491;DHT22;8356;51.214;3.270;2023-02-13T04:42:38;281.90;2278.40
16491;DHT22;8356;51.214;3.270;2023-02-13T04:45:03;281.90;2278.40
16491;DHT22;8356;51.214;3.270;2023-02-13T04:47:29;281.80;2278.40
16491;DHT22;8356;51.214;3.270;2023-02-13T04:49:55;281.70;2278.40
16491;DHT22;8356;51.214;3.270;2023-02-13T04:52:20;281.80;2278.40
16491;DHT22;8356;51.214;3.270;2023-02-13T04:54:46;281.80;2278.40
16491;DHT22;8356;51.214;3.270;2023-02-13T04:57:12;281.80;2278.40
16491;DHT22;8356;51.214;3.270;2023-02-13T04:59:37;281.80;2278.40
16491;DHT22;8356;51.214;3.270;2023-02-13T05:02:03;281.80;2278.40
16491;DHT22;8356;51.214;3.270;2023-02-13T05:04:29;281.80;2278.40
16491;DHT22;8356;51.214;3.270;2023-02-13T05:06:54;281.80;2278.40
16491;DHT22;8356;51.214;3.270;2023-02-13T05:09:20;281.80;2278.40
16491;DHT22;8356;51.214;3.270;2023-02-13T05:11:46;281.70;2278.40
16491;DHT22;8356;51.214;3.270;2023-02-13T05:14:11;256.80;2252.80
16491;DHT22;8356;51.214;3.270;2023-02-13T05:16:37;281.60;2278.40
16491;DHT22;8356;51.214;3.270;2023-02-13T05:19:03;256.90;2252.80
16491;DHT22;8356;51.214;3.270;2023-02-13T05:21:28;281.60;2278.40
16491;DHT22;8356;51.214;3.270;2023-02-13T05:24:12;281.80;2278.40
16491;DHT22;8356;51.214;3.270;2023-02-13T05:26:38;281.80;2278.40
16491;DHT22;8356;51.214;3.270;2023-02-13T05:29:04;281.80;2278.40
16491;DHT22;8356;51.214;3.270;2023-02-13T05:31:45;281.70;2278.40
16491;DHT22;8356;51.214;3.270;2023-02-13T05:34:11;281.80;2278.40
16491;DHT22;8356;51.214;3.270;2023-02-13T05:36:36;281.90;2278.40
16491;DHT22;8356;51.214;3.270;2023-02-13T05:39:02;281.80;2278.40
16491;DHT22;8356;51.214;3.270;2023-02-13T05:41:28;281.70;2278.40
16491;DHT22;8356;51.214;3.270;2023-02-13T05:43:54;256.90;2252.80
16491;DHT22;8356;51.214;3.270;2023-02-13T05:46:19;256.90;2252.80
16491;DHT22;8356;51.214;3.270;2023-02-13T05:48:45;282.00;2278.40
16491;DHT22;8356;51.214;3.270;2023-02-13T05:51:10;281.60;2278.40
16491;DHT22;8356;51.214;3.270;2023-02-13T05:53:36;281.60;2278.40
16491;DHT22;8356;51.214;3.270;2023-02-13T05:56:04;281.70;2278.40
16491;DHT22;8356;51.214;3.270;2023-02-13T05:58:30;256.90;2252.80
16491;DHT22;8356;51.214;3.270;2023-02-13T06:00:57;281.70;2278.40
16491;DHT22;8356;51.214;3.270;2023-02-13T06:03:27;281.70;2278.40
16491;DHT22;8356;51.214;3.270;2023-02-13T06:05:53;281.60;2278.40
16491;DHT22;8356;51.214;3.270;2023-02-13T06:08:19;256.90;2252.80
16491;DHT22;8356;51.214;3.270;2023-02-13T06:10:49;256.90;2252.80
16491;DHT22;8356;51.214;3.270;2023-02-13T06:13:15;256.80;2252.80
16491;DHT22;8356;51.214;3.270;2023-02-13T06:15:41;256.90;2252.80
16491;DHT22;8356;51.214;3.270;2023-02-13T06:18:06;256.90;2252.80
16491;DHT22;8356;51.214;3.270;2023-02-13T06:20:33;256.90;2252.80
16491;DHT22;8356;51.214;3.270;2023-02-13T06:22:59;256.90;2252.80
16491;DHT22;8356;51.214;3.270;2023-02-13T06:25:24;256.80;2252.80
16491;DHT22;8356;51.214;3.270;2023-02-13T06:27:50;256.90;2252.80
16491;DHT22;8356;51.214;3.270;2023-02-13T06:30:16;256.90;2252.80
16491;DHT22;8356;51.214;3.270;2023-02-13T06:32:42;256.90;2252.80
16491;DHT22;8356;51.214;3.270;2023-02-13T06:35:08;256.80;2252.80
16491;DHT22;8356;51.214;3.270;2023-02-13T06:37:34;256.90;2252.80
16491;DHT22;8356;51.214;3.270;2023-02-13T06:40:00;256.80;2252.80
16491;DHT22;8356;51.214;3.270;2023-02-13T06:42:25;256.80;2252.80
16491;DHT22;8356;51.214;3.270;2023-02-13T06:44:51;256.90;2252.80
16491;DHT22;8356;51.214;3.270;2023-02-13T06:47:17;256.90;2252.80
16491;DHT22;8356;51.214;3.270;2023-02-13T06:49:42;256.80;2252.80
16491;DHT22;8356;51.214;3.270;2023-02-13T06:52:08;256.80;2252.80
16491;DHT22;8356;51.214;3.270;2023-02-13T06:54:34;256.90;2252.80
16491;DHT22;8356;51.214;3.270;2023-02-13T06:56:59;256.80;2252.80
16491;DHT22;8356;51.214;3.270;2023-02-13T06:59:25;256.90;2252.80
16491;DHT22;8356;51.214;3.270;2023-02-13T07:01:50;256.80;2252.80
16491;DHT22;8356;51.214;3.270;2023-02-13T07:04:16;256.80;2252.80
16491;DHT22;8356;51.214;3.270;2023-02-13T07:06:42;256.80;2252.80
16491;DHT22;8356;51.214;3.270;2023-02-13T07:09:07;256.70;2252.80
16491;DHT22;8356;51.214;3.270;2023-02-13T07:11:33;256.70;2252.80
16491;DHT22;8356;51.214;3.270;2023-02-13T07:13:59;256.60;2252.80
16491;DHT22;8356;51.214;3.270;2023-02-13T07:16:24;256.60;2252.80
16491;DHT22;8356;51.214;3.270;2023-02-13T07:18:50;256.60;2252.80
16491;DHT22;8356;51.214;3.270;2023-02-13T07:21:15;256.50;2252.80
16491;DHT22;8356;51.214;3.270;2023-02-13T07:23:41;256.50;2252.80
16491;DHT22;8356;51.214;3.270;2023-02-13T07:26:07;256.60;2252.80
16491;DHT22;8356;51.214;3.270;2023-02-13T07:28:32;256.50;2252.80
16491;DHT22;8356;51.214;3.270;2023-02-13T07:31:03;256.50;2252.80
16491;DHT22;8356;51.214;3.270;2023-02-13T07:33:30;256.40;2252.80
16491;DHT22;8356;51.214;3.270;2023-02-13T07:35:56;256.50;2252.80
16491;DHT22;8356;51.214;3.270;2023-02-13T07:38:21;256.50;2252.80
16491;DHT22;8356;51.214;3.270;2023-02-13T07:40:47;256.50;2252.80
16491;DHT22;8356;51.214;3.270;2023-02-13T07:43:13;256.50;2252.80
16491;DHT22;8356;51.214;3.270;2023-02-13T07:45:38;256.40;2252.80
16491;DHT22;8356;51.214;3.270;2023-02-13T07:48:04;256.30;2252.80
16491;DHT22;8356;51.214;3.270;2023-02-13T07:50:30;256.30;2252.80
16491;DHT22;8356;51.214;3.270;2023-02-13T07:53:00;256.20;2252.80
16491;DHT22;8356;51.214;3.270;2023-02-13T07:55:28;256.20;2252.80
16491;DHT22;8356;51.214;3.270;2023-02-13T07:57:54;256.20;2252.80
16491;DHT22;8356;51.214;3.270;2023-02-13T08:00:20;256.20;2252.80
16491;DHT22;8356;51.214;3.270;2023-02-13T08:02:46;256.20;2252.80
16491;DHT22;8356;51.214;3.270;2023-02-13T08:05:13;256.20;2252.80
16491;DHT22;8356;51.214;3.270;2023-02-13T08:07:38;256.30;2252.80
16491;DHT22;8356;51.214;3.270;2023-02-13T08:10:06;256.30;2252.80
16491;DHT22;8356;51.214;3.270;2023-02-13T08:12:52;256.20;2252.80
16491;DHT22;8356;51.214;3.270;2023-02-13T08:15:17;256.50;2252.80
16491;DHT22;8356;51.214;3.270;2023-02-13T08:17:43;256.50;2252.80
16491;DHT22;8356;51.214;3.270;2023-02-13T08:20:09;256.40;2252.80
16491;DHT22;8356;51.214;3.270;2023-02-13T08:22:36;256.10;2252.80
16491;DHT22;8356;51.214;3.270;2023-02-13T08:25:03;256.40;2252.80
16491;DHT22;8356;51.214;3.270;2023-02-13T08:27:29;256.50;2252.80
16491;DHT22;8356;51.214;3.270;2023-02-13T08:29:56;256.50;2252.80
16491;DHT22;8356;51.214;3.270;2023-02-13T08:32:22;256.40;2252.80
16491;DHT22;8356;51.214;3.270;2023-02-13T08:34:48;256.50;2252.80
16491;DHT22;8356;51.214;3.270;2023-02-13T08:37:14;256.60;2252.80
16491;DHT22;8356;51.214;3.270;2023-02-13T08:39:40;256.60;2252.80
16491;DHT22;8356;51.214;3.270;2023-02-13T08:42:05;256.70;2252.80
16491;DHT22;8356;51.214;3.270;2023-02-13T08:44:31;256.80;2252.80
16491;DHT22;8356;51.214;3.270;2023-02-13T08:46:57;281.60;2278.40
16491;DHT22;8356;51.214;3.270;2023-02-13T08:49:23;281.60;2278.40
16491;DHT22;8356;51.214;3.270;2023-02-13T08:51:49;256.80;2252.80
16491;DHT22;8356;51.214;3.270;2023-02-13T08:54:15;256.90;2252.80
16491;DHT22;8356;51.214;3.270;2023-02-13T08:56:41;281.60;2278.40
16491;DHT22;8356;51.214;3.270;2023-02-13T08:59:07;281.60;2278.40
16491;DHT22;8356;51.214;3.270;2023-02-13T09:01:33;281.70;2278.40
16491;DHT22;8356;51.214;3.270;2023-02-13T09:03:58;281.80;2278.40
16491;DHT22;8356;51.214;3.270;2023-02-13T09:06:24;282.00;2278.40
16491;DHT22;8356;51.214;3.270;2023-02-13T09:08:53;282.00;2278.40
16491;DHT22;8356;51.214;3.270;2023-02-13T09:11:19;282.20;2278.40
16491;DHT22;8356;51.214;3.270;2023-02-13T09:13:48;282.30;2278.40
16491;DHT22;8356;51.214;3.270;2023-02-13T09:16:14;282.30;2278.40
16491;DHT22;8356;51.214;3.270;2023-02-13T09:18:40;282.20;2278.40
16491;DHT22;8356;51.214;3.270;2023-02-13T09:21:08;282.30;2278.40
16491;DHT22;8356;51.214;3.270;2023-02-13T09:23:37;282.20;2278.40
16491;DHT22;8356;51.214;3.270;2023-02-13T09:26:09;282.30;2278.40
16491;DHT22;8356;51.214;3.270;2023-02-13T09:28:35;282.30;2278.40
16491;DHT22;8356;51.214;3.270;2023-02-13T09:31:13;282.40;2278.40
16491;DHT22;8356;51.214;3.270;2023-02-13T09:33:42;307.20;2304.00
16491;DHT22;8356;51.214;3.270;2023-02-13T09:36:14;307.30;2304.00
16491;DHT22;8356;51.214;3.270;2023-02-13T09:38:41;307.30;2304.00
16491;DHT22;8356;51.214;3.270;2023-02-13T09:44:00;307.40;2304.00
16491;DHT22;8356;51.214;3.270;2023-02-13T09:46:37;307.40;2304.00
16491;DHT22;8356;51.214;3.270;2023-02-13T09:49:15;307.50;2304.00
16491;DHT22;8356;51.214;3.270;2023-02-13T09:51:53;307.40;2304.00
16491;DHT22;8356;51.214;3.270;2023-02-13T09:54:20;307.40;2304.00
16491;DHT22;8356;51.214;3.270;2023-02-13T09:59:37;307.50;2304.00
16491;DHT22;8356;51.214;3.270;2023-02-13T10:16:34;307.60;2304.00
16491;DHT22;8356;51.214;3.270;2023-02-13T10:22:03;307.80;2304.00
16491;DHT22;8356;51.214;3.270;2023-02-13T10:24:39;307.80;2304.00
16491;DHT22;8356;51.214;3.270;2023-02-13T10:32:51;307.90;2304.00
16491;DHT22;8356;51.214;3.270;2023-02-13T10:35:36;308.00;2304.00
16491;DHT22;8356;51.214;3.270;2023-02-13T10:38:13;332.80;2329.60
16491;DHT22;8356;51.214;3.270;2023-02-13T10:40:47;332.80;2329.60
16491;DHT22;8356;51.214;3.270;2023-02-13T10:43:19;332.90;2329.60
16491;DHT22;8356;51.214;3.270;2023-02-13T10:46:10;333.00;2329.60
16491;DHT22;8356;51.214;3.270;2023-02-13T10:57:19;332.90;2329.60
16491;DHT22;8356;51.214;3.270;2023-02-13T11:02:32;333.10;2329.60
16491;DHT22;8356;51.214;3.270;2023-02-13T11:05:18;333.20;2329.60
16491;DHT22;8356;51.214;3.270;2023-02-13T11:07:46;333.10;2329.60
16491;DHT22;8356;51.214;3.270;2023-02-13T11:10:18;333.30;2329.60
16491;DHT22;8356;51.214;3.270;2023-02-13T11:12:45;333.40;2329.60
16491;DHT22;8356;51.214;3.270;2023-02-13T11:15:25;333.40;2329.60
16491;DHT22;8356;51.214;3.270;2023-02-13T11:17:57;333.40;2329.60
16491;DHT22;8356;51.214;3.270;2023-02-13T11:20:36;333.50;2329.60
16491;DHT22;8356;51.214;3.270;2023-02-13T11:26:06;333.70;2329.60
16491;DHT22;8356;51.214;3.270;2023-02-13T11:29:00;333.60;2329.60
16491;DHT22;8356;51.214;3.270;2023-02-13T11:31:36;333.70;2329.60
16491;DHT22;8356;51.214;3.270;2023-02-13T11:36:51;358.40;2329.60
16491;DHT22;8356;51.214;3.270;2023-02-13T11:39:19;358.50;2329.60
16491;DHT22;8356;51.214;3.270;2023-02-13T11:41:46;358.40;2329.60
16491;DHT22;8356;51.214;3.270;2023-02-13T11:44:22;358.50;2329.60
16491;DHT22;8356;51.214;3.270;2023-02-13T11:46:51;358.40;2329.60
16491;DHT22;8356;51.214;3.270;2023-02-13T11:49:21;358.50;2329.60
16491;DHT22;8356;51.214;3.270;2023-02-13T11:51:50;358.60;2329.60
16491;DHT22;8356;51.214;3.270;2023-02-13T11:54:34;358.70;2329.60
16491;DHT22;8356;51.214;3.270;2023-02-13T11:59:50;358.60;2329.60
16491;DHT22;8356;51.214;3.270;2023-02-13T12:04:46;358.60;2329.60
16491;DHT22;8356;51.214;3.270;2023-02-13T12:07:23;358.70;2329.60
16491;DHT22;8356;51.214;3.270;2023-02-13T12:10:05;358.70;2329.60
16491;DHT22;8356;51.214;3.270;2023-02-13T12:12:55;358.80;2329.60
16491;DHT22;8356;51.214;3.270;2023-02-13T12:15:23;358.90;2329.60
16491;DHT22;8356;51.214;3.270;2023-02-13T12:28:50;358.90;2329.60
16491;DHT22;8356;51.214;3.270;2023-02-13T12:37:05;358.90;2329.60
16491;DHT22;8356;51.214;3.270;2023-02-13T12:42:37;359.10;2329.60
16491;DHT22;8356;51.214;3.270;2023-02-13T12:54:01;359.10;2329.60
16491;DHT22;8356;51.214;3.270;2023-02-13T12:56:38;359.10;2329.60
16491;DHT22;8356;51.214;3.270;2023-02-13T12:59:29;359.30;2329.60
16491;DHT22;8356;51.214;3.270;2023-02-13T13:11:01;359.20;2329.60
16491;DHT22;8356;51.214;3.270;2023-02-13T13:13:37;359.20;2329.60
16491;DHT22;8356;51.214;3.270;2023-02-13T13:16:50;359.20;2329.60
16491;DHT22;8356;51.214;3.270;2023-02-13T13:27:32;384.10;2329.60
16491;DHT22;8356;51.214;3.270;2023-02-13T13:32:38;384.00;2329.60
16491;DHT22;8356;51.214;3.270;2023-02-13T13:35:13;359.30;2329.60
16491;DHT22;8356;51.214;3.270;2023-02-13T13:37:45;359.30;2329.60
16491;DHT22;8356;51.214;3.270;2023-02-13T13:40:26;384.00;2329.60
16491;DHT22;8356;51.214;3.270;2023-02-13T13:48:39;359.20;2329.60
16491;DHT22;8356;51.214;3.270;2023-02-13T13:51:12;359.30;2329.60
16491;DHT22;8356;51.214;3.270;2023-02-13T13:59:18;384.10;2329.60
16491;DHT22;8356;51.214;3.270;2023-02-13T14:01:44;384.10;2329.60
16491;DHT22;8356;51.214;3.270;2023-02-13T14:14:54;384.10;2329.60
16491;DHT22;8356;51.214;3.270;2023-02-13T14:25:49;384.00;2329.60
16491;DHT22;8356;51.214;3.270;2023-02-13T14:28:33;384.00;2329.60
16491;DHT22;8356;51.214;3.270;2023-02-13T14:31:28;384.10;2329.60
16491;DHT22;8356;51.214;3.270;2023-02-13T14:33:56;384.10;2329.60
16491;DHT22;8356;51.214;3.270;2023-02-13T14:36:27;384.10;2329.60
16491;DHT22;8356;51.214;3.270;2023-02-13T14:39:00;384.20;2329.60
16491;DHT22;8356;51.214;3.270;2023-02-13T14:44:24;384.10;2329.60
16491;DHT22;8356;51.214;3.270;2023-02-13T14:46:52;384.10;2329.60
16491;DHT22;8356;51.214;3.270;2023-02-13T14:49:30;384.10;2329.60
16491;DHT22;8356;51.214;3.270;2023-02-13T14:52:21;384.20;2329.60
16491;DHT22;8356;51.214;3.270;2023-02-13T14:54:58;384.20;2329.60
16491;DHT22;8356;51.214;3.270;2023-02-13T14:57:44;384.10;2329.60
16491;DHT22;8356;51.214;3.270;2023-02-13T15:00:24;359.30;2329.60
16491;DHT22;8356;51.214;3.270;2023-02-13T15:05:49;384.10;2329.60
16491;DHT22;8356;51.214;3.270;2023-02-13T15:08:20;384.00;2329.60
16491;DHT22;8356;51.214;3.270;2023-02-13T15:10:50;384.10;2329.60
16491;DHT22;8356;51.214;3.270;2023-02-13T15:13:34;384.10;2329.60
16491;DHT22;8356;51.214;3.270;2023-02-13T15:16:10;384.10;2329.60
16491;DHT22;8356;51.214;3.270;2023-02-13T15:18:44;384.10;2329.60
16491;DHT22;8356;51.214;3.270;2023-02-13T15:21:19;359.30;2329.60
16491;DHT22;8356;51.214;3.270;2023-02-13T15:23:53;359.20;2329.60
16491;DHT22;8356;51.214;3.270;2023-02-13T15:26:24;359.20;2329.60
16491;DHT22;8356;51.214;3.270;2023-02-13T15:28:59;359.20;2329.60
16491;DHT22;8356;51.214;3.270;2023-02-13T15:31:30;359.20;2329.60
16491;DHT22;8356;51.214;3.270;2023-02-13T15:33:57;359.10;2329.60
16491;DHT22;8356;51.214;3.270;2023-02-13T15:36:25;359.10;2329.60
16491;DHT22;8356;51.214;3.270;2023-02-13T15:39:04;359.20;2329.60
16491;DHT22;8356;51.214;3.270;2023-02-13T15:41:36;359.20;2329.60
16491;DHT22;8356;51.214;3.270;2023-02-13T15:44:03;359.30;2329.60
16491;DHT22;8356;51.214;3.270;2023-02-13T15:46:30;359.30;2329.60
16491;DHT22;8356;51.214;3.270;2023-02-13T15:49:04;359.20;2329.60
16491;DHT22;8356;51.214;3.270;2023-02-13T15:51:31;359.20;2329.60
16491;DHT22;8356;51.214;3.270;2023-02-13T15:54:18;359.30;2329.60
16491;DHT22;8356;51.214;3.270;2023-02-13T15:56:47;359.20;2329.60
16491;DHT22;8356;51.214;3.270;2023-02-13T15:59:13;359.30;2329.60
16491;DHT22;8356;51.214;3.270;2023-02-13T16:01:41;359.20;2329.60
16491;DHT22;8356;51.214;3.270;2023-02-13T16:04:11;359.10;2329.60
16491;DHT22;8356;51.214;3.270;2023-02-13T16:06:39;359.10;2329.60
16491;DHT22;8356;51.214;3.270;2023-02-13T16:09:04;359.20;2329.60
16491;DHT22;8356;51.214;3.270;2023-02-13T16:11:38;359.20;2329.60
16491;DHT22;8356;51.214;3.270;2023-02-13T16:14:29;359.10;2329.60
16491;DHT22;8356;51.214;3.270;2023-02-13T16:17:04;359.10;2329.60
16491;DHT22;8356;51.214;3.270;2023-02-13T16:24:45;359.20;2329.60
16491;DHT22;8356;51.214;3.270;2023-02-13T16:27:14;359.20;2329.60
16491;DHT22;8356;51.214;3.270;2023-02-13T16:29:50;359.20;2329.60
16491;DHT22;8356;51.214;3.270;2023-02-13T16:32:27;359.10;2329.60
16491;DHT22;8356;51.214;3.270;2023-02-13T16:34:54;359.10;2329.60
16491;DHT22;8356;51.214;3.270;2023-02-13T16:37:30;359.10;2329.60
16491;DHT22;8356;51.214;3.270;2023-02-13T16:39:57;359.10;2329.60
16491;DHT22;8356;51.214;3.270;2023-02-13T16:42:40;359.10;2329.60
16491;DHT22;8356;51.214;3.270;2023-02-13T16:45:25;359.00;2329.60
16491;DHT22;8356;51.214;3.270;2023-02-13T16:48:00;358.90;2329.60
16491;DHT22;8356;51.214;3.270;2023-02-13T16:50:28;358.90;2329.60
16491;DHT22;8356;51.214;3.270;2023-02-13T16:53:00;358.90;2329.60
16491;DHT22;8356;51.214;3.270;2023-02-13T16:55:26;358.90;2329.60
16491;DHT22;8356;51.214;3.270;2023-02-13T16:58:01;358.90;2329.60
16491;DHT22;8356;51.214;3.270;2023-02-13T17:00:27;358.80;2329.60
16491;DHT22;8356;51.214;3.270;2023-02-13T17:02:53;358.80;2329.60
16491;DHT22;8356;51.214;3.270;2023-02-13T17:05:28;358.70;2329.60
16491;DHT22;8356;51.214;3.270;2023-02-13T17:07:55;358.70;2329.60
16491;DHT22;8356;51.214;3.270;2023-02-13T17:10:31;358.70;2329.60
16491;DHT22;8356;51.214;3.270;2023-02-13T17:15:33;358.60;2329.60
16491;DHT22;8356;51.214;3.270;2023-02-13T17:17:58;358.50;2329.60
16491;DHT22;8356;51.214;3.270;2023-02-13T17:20:27;358.40;2329.60
16491;DHT22;8356;51.214;3.270;2023-02-13T17:22:55;358.40;2329.60
16491;DHT22;8356;51.214;3.270;2023-02-13T17:27:49;358.40;2329.60
16491;DHT22;8356;51.214;3.270;2023-02-13T17:30:17;358.40;2329.60
16491;DHT22;8356;51.214;3.270;2023-02-13T17:32:44;358.40;2329.60
16491;DHT22;8356;51.214;3.270;2023-02-13T17:35:11;333.70;2329.60
16491;DHT22;8356;51.214;3.270;2023-02-13T17:37:37;332.90;2329.60
16491;DHT22;8356;51.214;3.270;2023-02-13T17:40:05;333.70;2329.60
16491;DHT22;8356;51.214;3.270;2023-02-13T17:42:31;333.70;2329.60
16491;DHT22;8356;51.214;3.270;2023-02-13T17:44:57;333.60;2329.60
16491;DHT22;8356;51.214;3.270;2023-02-13T17:47:24;333.70;2329.60
16491;DHT22;8356;51.214;3.270;2023-02-13T17:49:50;333.20;2329.60
16491;DHT22;8356;51.214;3.270;2023-02-13T17:52:26;333.20;2329.60
16491;DHT22;8356;51.214;3.270;2023-02-13T17:54:53;333.20;2329.60
16491;DHT22;8356;51.214;3.270;2023-02-13T17:57:18;333.10;2329.60
16491;DHT22;8356;51.214;3.270;2023-02-13T17:59:45;333.10;2329.60
16491;DHT22;8356;51.214;3.270;2023-02-13T18:02:22;333.10;2329.60
16491;DHT22;8356;51.214;3.270;2023-02-13T18:04:48;333.00;2329.60
16491;DHT22;8356;51.214;3.270;2023-02-13T18:07:16;333.10;2329.60
16491;DHT22;8356;51.214;3.270;2023-02-13T18:09:43;333.00;2329.60
16491;DHT22;8356;51.214;3.270;2023-02-13T18:12:17;333.10;2329.60
16491;DHT22;8356;51.214;3.270;2023-02-13T18:14:43;333.10;2329.60
16491;DHT22;8356;51.214;3.270;2023-02-13T18:17:10;333.00;2329.60
16491;DHT22;8356;51.214;3.270;2023-02-13T18:19:36;332.90;2329.60
16491;DHT22;8356;51.214;3.270;2023-02-13T18:22:03;333.50;2329.60
16491;DHT22;8356;51.214;3.270;2023-02-13T18:24:30;332.80;2329.60
16491;DHT22;8356;51.214;3.270;2023-02-13T18:26:56;332.80;2329.60